sensor_id;sensor_type;location;lat;lon;timestamp;P1;durP1;ratioP1;P2;durP2;ratioP2
72797;SDS011;61084;55.816;37.036;2022-07-11T00:04:40;7.85;;;6.30;;
72797;SDS011;61084;55.816;37.036;2022-07-11T00:07:07;15.23;;;6.47;;
72797;SDS011;61084;55.816;37.036;2022-07-11T00:09:33;9.13;;;5.90;;
72797;SDS011;61084;55.816;37.036;2022-07-11T00:11:59;11.40;;;6.00;;
72797;SDS011;61084;55.816;37.036;2022-07-11T00:14:25;9.40;;;6.18;;
72797;SDS011;61084;55.816;37.036;2022-07-11T00:16:52;8.82;;;6.00;;
72797;SDS011;61084;55.816;37.036;2022-07-11T00:19:19;15.88;;;7.88;;
72797;SDS011;61084;55.816;37.036;2022-07-11T00:21:46;12.73;;;6.85;;
72797;SDS011;61084;55.816;37.036;2022-07-11T00:24:15;13.23;;;6.32;;
72797;SDS011;61084;55.816;37.036;2022-07-11T00:26:43;14.77;;;6.25;;
72797;SDS011;61084;55.816;37.036;2022-07-11T00:29:09;9.10;;;5.65;;
72797;SDS011;61084;55.816;37.036;2022-07-11T00:31:35;10.23;;;6.82;;
72797;SDS011;61084;55.816;37.036;2022-07-11T00:34:00;9.20;;;5.90;;
72797;SDS011;61084;55.816;37.036;2022-07-11T00:36:26;10.50;;;6.18;;
72797;SDS011;61084;55.816;37.036;2022-07-11T00:38:52;10.60;;;6.00;;
72797;SDS011;61084;55.816;37.036;2022-07-11T00:41:18;8.35;;;5.22;;
72797;SDS011;61084;55.816;37.036;2022-07-11T00:43:49;10.38;;;5.70;;
72797;SDS011;61084;55.816;37.036;2022-07-11T00:46:26;9.50;;;6.13;;
72797;SDS011;61084;55.816;37.036;2022-07-11T00:48:56;8.55;;;6.45;;
72797;SDS011;61084;55.816;37.036;2022-07-11T00:51:23;8.98;;;6.22;;
72797;SDS011;61084;55.816;37.036;2022-07-11T00:53:51;7.32;;;6.10;;
72797;SDS011;61084;55.816;37.036;2022-07-11T00:56:22;9.38;;;7.00;;
72797;SDS011;61084;55.816;37.036;2022-07-11T00:58:50;9.07;;;5.75;;
72797;SDS011;61084;55.816;37.036;2022-07-11T01:01:17;11.75;;;6.90;;
72797;SDS011;61084;55.816;37.036;2022-07-11T01:03:44;9.50;;;6.32;;
72797;SDS011;61084;55.816;37.036;2022-07-11T01:06:11;10.98;;;6.22;;
72797;SDS011;61084;55.816;37.036;2022-07-11T01:08:38;9.15;;;6.57;;
72797;SDS011;61084;55.816;37.036;2022-07-11T01:11:05;9.38;;;5.63;;
72797;SDS011;61084;55.816;37.036;2022-07-11T01:13:41;12.52;;;6.68;;
72797;SDS011;61084;55.816;37.036;2022-07-11T01:18:42;13.13;;;5.97;;
72797;SDS011;61084;55.816;37.036;2022-07-11T01:21:25;10.73;;;6.90;;
72797;SDS011;61084;55.816;37.036;2022-07-11T01:23:53;10.30;;;6.20;;
72797;SDS011;61084;55.816;37.036;2022-07-11T01:26:20;10.73;;;6.95;;
72797;SDS011;61084;55.816;37.036;2022-07-11T01:28:47;15.00;;;7.82;;
72797;SDS011;61084;55.816;37.036;2022-07-11T01:31:13;9.80;;;6.88;;
72797;SDS011;61084;55.816;37.036;2022-07-11T01:33:39;11.68;;;7.43;;
72797;SDS011;61084;55.816;37.036;2022-07-11T01:36:06;10.95;;;6.95;;
72797;SDS011;61084;55.816;37.036;2022-07-11T01:38:32;8.95;;;6.45;;
72797;SDS011;61084;55.816;37.036;2022-07-11T01:40:58;11.15;;;8.05;;
72797;SDS011;61084;55.816;37.036;2022-07-11T01:43:24;10.70;;;7.88;;
72797;SDS011;61084;55.816;37.036;2022-07-11T01:45:51;9.35;;;7.25;;
72797;SDS011;61084;55.816;37.036;2022-07-11T01:48:17;12.73;;;7.80;;
72797;SDS011;61084;55.816;37.036;2022-07-11T01:50:43;13.75;;;7.68;;
72797;SDS011;61084;55.816;37.036;2022-07-11T01:53:09;17.50;;;7.93;;
72797;SDS011;61084;55.816;37.036;2022-07-11T01:55:35;12.00;;;8.18;;
72797;SDS011;61084;55.816;37.036;2022-07-11T01:58:01;11.05;;;7.50;;
72797;SDS011;61084;55.816;37.036;2022-07-11T02:00:26;9.75;;;7.95;;
72797;SDS011;61084;55.816;37.036;2022-07-11T02:02:52;15.30;;;9.32;;
72797;SDS011;61084;55.816;37.036;2022-07-11T02:05:18;11.88;;;7.95;;
72797;SDS011;61084;55.816;37.036;2022-07-11T02:07:44;11.45;;;7.47;;
72797;SDS011;61084;55.816;37.036;2022-07-11T02:10:28;11.32;;;7.57;;
72797;SDS011;61084;55.816;37.036;2022-07-11T02:12:58;11.73;;;9.80;;
72797;SDS011;61084;55.816;37.036;2022-07-11T02:15:25;14.85;;;8.00;;
72797;SDS011;61084;55.816;37.036;2022-07-11T02:17:52;10.57;;;8.30;;
72797;SDS011;61084;55.816;37.036;2022-07-11T02:20:18;13.60;;;8.02;;
72797;SDS011;61084;55.816;37.036;2022-07-11T02:22:45;10.85;;;9.02;;
72797;SDS011;61084;55.816;37.036;2022-07-11T02:25:12;11.95;;;8.98;;
72797;SDS011;61084;55.816;37.036;2022-07-11T02:27:38;13.60;;;8.73;;
72797;SDS011;61084;55.816;37.036;2022-07-11T02:30:04;13.35;;;8.02;;
72797;SDS011;61084;55.816;37.036;2022-07-11T02:32:30;11.32;;;7.22;;
72797;SDS011;61084;55.816;37.036;2022-07-11T02:34:56;14.05;;;8.45;;
72797;SDS011;61084;55.816;37.036;2022-07-11T02:37:22;12.18;;;8.10;;
72797;SDS011;61084;55.816;37.036;2022-07-11T02:39:47;9.65;;;7.30;;
72797;SDS011;61084;55.816;37.036;2022-07-11T02:42:13;10.98;;;8.23;;
72797;SDS011;61084;55.816;37.036;2022-07-11T02:44:39;13.68;;;9.18;;
72797;SDS011;61084;55.816;37.036;2022-07-11T02:47:05;10.93;;;7.05;;
72797;SDS011;61084;55.816;37.036;2022-07-11T02:49:30;8.73;;;6.70;;
72797;SDS011;61084;55.816;37.036;2022-07-11T02:51:58;13.98;;;7.22;;
72797;SDS011;61084;55.816;37.036;2022-07-11T02:54:24;15.73;;;7.32;;
72797;SDS011;61084;55.816;37.036;2022-07-11T02:56:50;11.80;;;7.25;;
72797;SDS011;61084;55.816;37.036;2022-07-11T02:59:15;10.48;;;7.38;;
72797;SDS011;61084;55.816;37.036;2022-07-11T03:01:41;8.25;;;6.80;;
72797;SDS011;61084;55.816;37.036;2022-07-11T03:04:08;10.10;;;7.15;;
72797;SDS011;61084;55.816;37.036;2022-07-11T03:06:34;12.27;;;8.05;;
72797;SDS011;61084;55.816;37.036;2022-07-11T03:09:01;9.40;;;6.80;;
72797;SDS011;61084;55.816;37.036;2022-07-11T03:11:27;15.50;;;7.22;;
72797;SDS011;61084;55.816;37.036;2022-07-11T03:13:52;9.50;;;7.05;;
72797;SDS011;61084;55.816;37.036;2022-07-11T03:18:44;12.20;;;7.43;;
72797;SDS011;61084;55.816;37.036;2022-07-11T03:21:10;9.98;;;6.30;;
72797;SDS011;61084;55.816;37.036;2022-07-11T03:23:36;11.23;;;7.45;;
72797;SDS011;61084;55.816;37.036;2022-07-11T03:26:02;10.75;;;6.88;;
72797;SDS011;61084;55.816;37.036;2022-07-11T03:28:28;9.02;;;7.55;;
72797;SDS011;61084;55.816;37.036;2022-07-11T03:30:54;9.85;;;6.88;;
72797;SDS011;61084;55.816;37.036;2022-07-11T03:33:20;8.35;;;6.28;;
72797;SDS011;61084;55.816;37.036;2022-07-11T03:38:12;9.68;;;7.25;;
72797;SDS011;61084;55.816;37.036;2022-07-11T03:40:42;8.85;;;6.47;;
72797;SDS011;61084;55.816;37.036;2022-07-11T03:43:08;10.02;;;6.63;;
72797;SDS011;61084;55.816;37.036;2022-07-11T03:45:34;8.40;;;6.20;;
72797;SDS011;61084;55.816;37.036;2022-07-11T03:48:00;10.68;;;6.50;;
72797;SDS011;61084;55.816;37.036;2022-07-11T03:50:26;9.13;;;6.60;;
72797;SDS011;61084;55.816;37.036;2022-07-11T03:52:51;7.15;;;5.78;;
72797;SDS011;61084;55.816;37.036;2022-07-11T03:55:18;11.10;;;8.02;;
72797;SDS011;61084;55.816;37.036;2022-07-11T03:57:44;10.90;;;6.85;;
72797;SDS011;61084;55.816;37.036;2022-07-11T04:00:13;12.75;;;7.80;;
72797;SDS011;61084;55.816;37.036;2022-07-11T04:02:39;12.57;;;6.43;;
72797;SDS011;61084;55.816;37.036;2022-07-11T04:05:05;7.95;;;6.22;;
72797;SDS011;61084;55.816;37.036;2022-07-11T04:07:32;8.63;;;6.75;;
72797;SDS011;61084;55.816;37.036;2022-07-11T04:12:23;10.57;;;6.22;;
72797;SDS011;61084;55.816;37.036;2022-07-11T04:15:08;10.07;;;6.32;;
72797;SDS011;61084;55.816;37.036;2022-07-11T04:17:35;9.35;;;6.32;;
72797;SDS011;61084;55.816;37.036;2022-07-11T04:20:01;9.65;;;6.00;;
72797;SDS011;61084;55.816;37.036;2022-07-11T04:22:28;9.38;;;6.97;;
72797;SDS011;61084;55.816;37.036;2022-07-11T04:24:54;13.30;;;7.40;;
72797;SDS011;61084;55.816;37.036;2022-07-11T04:27:20;6.43;;;5.82;;
72797;SDS011;61084;55.816;37.036;2022-07-11T04:29:45;9.02;;;6.47;;
72797;SDS011;61084;55.816;37.036;2022-07-11T04:32:11;20.25;;;6.07;;
72797;SDS011;61084;55.816;37.036;2022-07-11T04:34:37;10.15;;;6.40;;
72797;SDS011;61084;55.816;37.036;2022-07-11T04:37:02;9.95;;;5.82;;
72797;SDS011;61084;55.816;37.036;2022-07-11T04:39:30;6.97;;;5.80;;
72797;SDS011;61084;55.816;37.036;2022-07-11T04:41:59;15.80;;;7.03;;
72797;SDS011;61084;55.816;37.036;2022-07-11T04:44:27;13.23;;;5.93;;
72797;SDS011;61084;55.816;37.036;2022-07-11T04:46:53;7.15;;;5.28;;
72797;SDS011;61084;55.816;37.036;2022-07-11T04:49:19;9.23;;;6.00;;
72797;SDS011;61084;55.816;37.036;2022-07-11T04:51:45;10.52;;;6.03;;
72797;SDS011;61084;55.816;37.036;2022-07-11T04:54:11;8.63;;;5.47;;
72797;SDS011;61084;55.816;37.036;2022-07-11T04:56:37;10.52;;;5.57;;
72797;SDS011;61084;55.816;37.036;2022-07-11T04:59:06;6.95;;;6.15;;
72797;SDS011;61084;55.816;37.036;2022-07-11T05:01:33;7.40;;;5.32;;
72797;SDS011;61084;55.816;37.036;2022-07-11T05:03:59;9.13;;;6.57;;
72797;SDS011;61084;55.816;37.036;2022-07-11T05:06:25;12.73;;;7.03;;
72797;SDS011;61084;55.816;37.036;2022-07-11T05:08:52;7.57;;;5.65;;
72797;SDS011;61084;55.816;37.036;2022-07-11T05:11:19;9.65;;;6.43;;
72797;SDS011;61084;55.816;37.036;2022-07-11T05:13:46;10.00;;;5.85;;
72797;SDS011;61084;55.816;37.036;2022-07-11T05:16:11;7.60;;;5.93;;
72797;SDS011;61084;55.816;37.036;2022-07-11T05:21:04;9.45;;;6.60;;
72797;SDS011;61084;55.816;37.036;2022-07-11T05:23:30;7.35;;;6.25;;
72797;SDS011;61084;55.816;37.036;2022-07-11T05:25:56;8.02;;;5.45;;
72797;SDS011;61084;55.816;37.036;2022-07-11T05:28:22;9.95;;;5.38;;
72797;SDS011;61084;55.816;37.036;2022-07-11T05:30:47;8.05;;;5.95;;
72797;SDS011;61084;55.816;37.036;2022-07-11T05:33:13;8.75;;;5.60;;
72797;SDS011;61084;55.816;37.036;2022-07-11T05:35:39;9.52;;;6.75;;
72797;SDS011;61084;55.816;37.036;2022-07-11T05:38:05;6.97;;;5.95;;
72797;SDS011;61084;55.816;37.036;2022-07-11T05:40:31;7.57;;;5.75;;
72797;SDS011;61084;55.816;37.036;2022-07-11T05:42:57;7.32;;;5.40;;
72797;SDS011;61084;55.816;37.036;2022-07-11T05:45:22;8.98;;;5.97;;
72797;SDS011;61084;55.816;37.036;2022-07-11T05:47:48;12.18;;;6.03;;
72797;SDS011;61084;55.816;37.036;2022-07-11T05:50:14;9.60;;;6.60;;
72797;SDS011;61084;55.816;37.036;2022-07-11T05:55:06;11.55;;;6.15;;
72797;SDS011;61084;55.816;37.036;2022-07-11T05:57:32;12.68;;;5.15;;
72797;SDS011;61084;55.816;37.036;2022-07-11T05:59:58;9.80;;;5.70;;
72797;SDS011;61084;55.816;37.036;2022-07-11T06:02:24;9.00;;;6.18;;
72797;SDS011;61084;55.816;37.036;2022-07-11T06:04:49;10.13;;;5.22;;
72797;SDS011;61084;55.816;37.036;2022-07-11T06:10:01;7.85;;;5.55;;
72797;SDS011;61084;55.816;37.036;2022-07-11T06:14:53;7.18;;;5.20;;
72797;SDS011;61084;55.816;37.036;2022-07-11T06:19:44;9.50;;;5.25;;
72797;SDS011;61084;55.816;37.036;2022-07-11T06:24:35;7.38;;;6.03;;
72797;SDS011;61084;55.816;37.036;2022-07-11T06:29:26;7.95;;;5.63;;
72797;SDS011;61084;55.816;37.036;2022-07-11T06:34:18;9.63;;;5.07;;
72797;SDS011;61084;55.816;37.036;2022-07-11T06:36:44;12.35;;;5.30;;
72797;SDS011;61084;55.816;37.036;2022-07-11T06:41:35;5.70;;;4.50;;
72797;SDS011;61084;55.816;37.036;2022-07-11T06:44:01;6.00;;;4.10;;
72797;SDS011;61084;55.816;37.036;2022-07-11T06:48:53;7.30;;;5.70;;
72797;SDS011;61084;55.816;37.036;2022-07-11T06:51:18;6.32;;;5.13;;
72797;SDS011;61084;55.816;37.036;2022-07-11T06:53:44;5.78;;;4.18;;
72797;SDS011;61084;55.816;37.036;2022-07-11T06:56:10;9.43;;;4.85;;
72797;SDS011;61084;55.816;37.036;2022-07-11T06:58:36;8.80;;;5.03;;
72797;SDS011;61084;55.816;37.036;2022-07-11T07:01:02;8.43;;;4.80;;
72797;SDS011;61084;55.816;37.036;2022-07-11T07:03:31;9.15;;;5.63;;
72797;SDS011;61084;55.816;37.036;2022-07-11T07:05:57;7.45;;;5.25;;
72797;SDS011;61084;55.816;37.036;2022-07-11T07:08:27;7.75;;;4.60;;
72797;SDS011;61084;55.816;37.036;2022-07-11T07:10:54;11.60;;;5.10;;
72797;SDS011;61084;55.816;37.036;2022-07-11T07:13:21;9.32;;;5.18;;
72797;SDS011;61084;55.816;37.036;2022-07-11T07:15:51;9.82;;;5.05;;
72797;SDS011;61084;55.816;37.036;2022-07-11T07:18:18;7.63;;;4.10;;
72797;SDS011;61084;55.816;37.036;2022-07-11T07:20:43;9.38;;;5.57;;
72797;SDS011;61084;55.816;37.036;2022-07-11T07:23:09;9.85;;;5.25;;
72797;SDS011;61084;55.816;37.036;2022-07-11T07:25:35;13.40;;;5.20;;
72797;SDS011;61084;55.816;37.036;2022-07-11T07:28:01;10.50;;;4.93;;
72797;SDS011;61084;55.816;37.036;2022-07-11T07:30:27;9.50;;;5.57;;
72797;SDS011;61084;55.816;37.036;2022-07-11T07:32:53;6.97;;;4.10;;
72797;SDS011;61084;55.816;37.036;2022-07-11T07:35:18;8.00;;;4.43;;
72797;SDS011;61084;55.816;37.036;2022-07-11T07:37:44;6.07;;;4.80;;
72797;SDS011;61084;55.816;37.036;2022-07-11T07:40:10;7.78;;;4.47;;
72797;SDS011;61084;55.816;37.036;2022-07-11T07:42:36;8.00;;;4.85;;
72797;SDS011;61084;55.816;37.036;2022-07-11T07:45:02;8.02;;;4.85;;
72797;SDS011;61084;55.816;37.036;2022-07-11T07:47:29;9.73;;;4.65;;
72797;SDS011;61084;55.816;37.036;2022-07-11T07:49:55;8.82;;;5.07;;
72797;SDS011;61084;55.816;37.036;2022-07-11T07:52:22;8.05;;;4.78;;
72797;SDS011;61084;55.816;37.036;2022-07-11T07:54:47;8.38;;;5.65;;
72797;SDS011;61084;55.816;37.036;2022-07-11T07:57:13;8.95;;;4.60;;
72797;SDS011;61084;55.816;37.036;2022-07-11T07:59:39;9.65;;;4.55;;
72797;SDS011;61084;55.816;37.036;2022-07-11T08:02:05;7.60;;;3.97;;
72797;SDS011;61084;55.816;37.036;2022-07-11T08:04:31;10.20;;;4.43;;
72797;SDS011;61084;55.816;37.036;2022-07-11T08:06:57;12.95;;;4.72;;
72797;SDS011;61084;55.816;37.036;2022-07-11T08:09:25;12.32;;;5.15;;
72797;SDS011;61084;55.816;37.036;2022-07-11T08:11:51;10.20;;;4.97;;
72797;SDS011;61084;55.816;37.036;2022-07-11T08:14:17;9.35;;;5.25;;
72797;SDS011;61084;55.816;37.036;2022-07-11T08:16:43;9.05;;;4.88;;
72797;SDS011;61084;55.816;37.036;2022-07-11T08:19:09;8.63;;;5.18;;
72797;SDS011;61084;55.816;37.036;2022-07-11T08:21:36;10.10;;;5.50;;
72797;SDS011;61084;55.816;37.036;2022-07-11T08:24:03;10.65;;;5.53;;
72797;SDS011;61084;55.816;37.036;2022-07-11T08:26:29;8.20;;;4.72;;
72797;SDS011;61084;55.816;37.036;2022-07-11T08:28:55;11.32;;;5.50;;
72797;SDS011;61084;55.816;37.036;2022-07-11T08:31:22;12.32;;;5.30;;
72797;SDS011;61084;55.816;37.036;2022-07-11T08:33:48;10.57;;;5.28;;
72797;SDS011;61084;55.816;37.036;2022-07-11T08:36:14;9.88;;;5.35;;
72797;SDS011;61084;55.816;37.036;2022-07-11T08:38:40;8.85;;;4.85;;
72797;SDS011;61084;55.816;37.036;2022-07-11T08:41:10;9.43;;;4.60;;
72797;SDS011;61084;55.816;37.036;2022-07-11T08:43:37;8.20;;;5.15;;
72797;SDS011;61084;55.816;37.036;2022-07-11T08:46:04;8.50;;;5.35;;
72797;SDS011;61084;55.816;37.036;2022-07-11T08:48:31;12.93;;;5.70;;
72797;SDS011;61084;55.816;37.036;2022-07-11T08:50:58;15.30;;;4.13;;
72797;SDS011;61084;55.816;37.036;2022-07-11T08:53:25;7.75;;;4.63;;
72797;SDS011;61084;55.816;37.036;2022-07-11T08:55:53;8.30;;;4.72;;
72797;SDS011;61084;55.816;37.036;2022-07-11T08:58:19;6.75;;;4.75;;
72797;SDS011;61084;55.816;37.036;2022-07-11T09:00:47;8.20;;;4.65;;
72797;SDS011;61084;55.816;37.036;2022-07-11T09:03:13;7.80;;;5.15;;
72797;SDS011;61084;55.816;37.036;2022-07-11T09:05:40;12.57;;;5.00;;
72797;SDS011;61084;55.816;37.036;2022-07-11T09:08:06;13.73;;;4.28;;
72797;SDS011;61084;55.816;37.036;2022-07-11T09:10:31;7.25;;;4.75;;
72797;SDS011;61084;55.816;37.036;2022-07-11T09:12:58;7.10;;;4.95;;
72797;SDS011;61084;55.816;37.036;2022-07-11T09:15:33;12.75;;;4.07;;
72797;SDS011;61084;55.816;37.036;2022-07-11T09:17:59;8.02;;;3.85;;
72797;SDS011;61084;55.816;37.036;2022-07-11T09:20:25;9.02;;;4.45;;
72797;SDS011;61084;55.816;37.036;2022-07-11T09:22:51;7.72;;;4.45;;
72797;SDS011;61084;55.816;37.036;2022-07-11T09:25:44;9.50;;;4.10;;
72797;SDS011;61084;55.816;37.036;2022-07-11T09:28:10;6.20;;;4.00;;
72797;SDS011;61084;55.816;37.036;2022-07-11T09:30:36;5.50;;;4.05;;
72797;SDS011;61084;55.816;37.036;2022-07-11T09:33:10;6.05;;;4.10;;
72797;SDS011;61084;55.816;37.036;2022-07-11T09:35:41;6.95;;;4.13;;
72797;SDS011;61084;55.816;37.036;2022-07-11T09:38:14;8.27;;;4.70;;
72797;SDS011;61084;55.816;37.036;2022-07-11T09:40:42;8.27;;;4.22;;
72797;SDS011;61084;55.816;37.036;2022-07-11T09:43:09;7.32;;;3.72;;
72797;SDS011;61084;55.816;37.036;2022-07-11T09:45:35;6.38;;;3.30;;
72797;SDS011;61084;55.816;37.036;2022-07-11T09:48:07;8.45;;;3.85;;
72797;SDS011;61084;55.816;37.036;2022-07-11T09:50:37;14.95;;;3.97;;
72797;SDS011;61084;55.816;37.036;2022-07-11T09:55:43;7.80;;;3.50;;
72797;SDS011;61084;55.816;37.036;2022-07-11T09:58:12;7.82;;;4.13;;
72797;SDS011;61084;55.816;37.036;2022-07-11T10:00:39;4.47;;;3.85;;
72797;SDS011;61084;55.816;37.036;2022-07-11T10:03:06;7.43;;;4.50;;
72797;SDS011;61084;55.816;37.036;2022-07-11T10:05:34;6.20;;;4.03;;
72797;SDS011;61084;55.816;37.036;2022-07-11T10:08:01;6.60;;;3.80;;
72797;SDS011;61084;55.816;37.036;2022-07-11T10:10:28;8.77;;;3.25;;
72797;SDS011;61084;55.816;37.036;2022-07-11T10:12:55;6.53;;;3.85;;
72797;SDS011;61084;55.816;37.036;2022-07-11T10:15:31;6.75;;;3.53;;
72797;SDS011;61084;55.816;37.036;2022-07-11T10:18:25;9.25;;;4.47;;
72797;SDS011;61084;55.816;37.036;2022-07-11T10:21:06;7.50;;;4.07;;
72797;SDS011;61084;55.816;37.036;2022-07-11T10:26:06;9.43;;;4.22;;
72797;SDS011;61084;55.816;37.036;2022-07-11T10:31:21;4.75;;;4.03;;
72797;SDS011;61084;55.816;37.036;2022-07-11T10:36:38;8.50;;;4.22;;
72797;SDS011;61084;55.816;37.036;2022-07-11T10:39:16;8.68;;;3.95;;
72797;SDS011;61084;55.816;37.036;2022-07-11T10:41:44;6.53;;;4.30;;
72797;SDS011;61084;55.816;37.036;2022-07-11T10:44:10;10.35;;;4.22;;
72797;SDS011;61084;55.816;37.036;2022-07-11T10:46:36;4.50;;;3.60;;
72797;SDS011;61084;55.816;37.036;2022-07-11T10:49:07;10.73;;;3.83;;
72797;SDS011;61084;55.816;37.036;2022-07-11T10:51:42;7.38;;;2.95;;
72797;SDS011;61084;55.816;37.036;2022-07-11T10:57:16;9.95;;;3.60;;
72797;SDS011;61084;55.816;37.036;2022-07-11T11:00:02;7.25;;;3.42;;
72797;SDS011;61084;55.816;37.036;2022-07-11T11:02:31;6.15;;;3.35;;
72797;SDS011;61084;55.816;37.036;2022-07-11T11:05:00;7.25;;;3.15;;
72797;SDS011;61084;55.816;37.036;2022-07-11T11:07:39;10.05;;;3.53;;
72797;SDS011;61084;55.816;37.036;2022-07-11T11:15:44;5.97;;;3.47;;
72797;SDS011;61084;55.816;37.036;2022-07-11T11:23:33;8.45;;;3.53;;
72797;SDS011;61084;55.816;37.036;2022-07-11T11:26:11;4.25;;;2.75;;
72797;SDS011;61084;55.816;37.036;2022-07-11T11:29:00;6.47;;;3.85;;
72797;SDS011;61084;55.816;37.036;2022-07-11T11:31:30;6.20;;;3.42;;
72797;SDS011;61084;55.816;37.036;2022-07-11T11:33:57;7.30;;;4.10;;
72797;SDS011;61084;55.816;37.036;2022-07-11T11:36:24;4.20;;;3.50;;
72797;SDS011;61084;55.816;37.036;2022-07-11T11:38:51;8.18;;;3.42;;
72797;SDS011;61084;55.816;37.036;2022-07-11T11:43:57;8.98;;;4.05;;
72797;SDS011;61084;55.816;37.036;2022-07-11T11:46:26;6.88;;;3.47;;
72797;SDS011;61084;55.816;37.036;2022-07-11T11:49:03;8.50;;;4.60;;
72797;SDS011;61084;55.816;37.036;2022-07-11T11:51:32;8.63;;;4.40;;
72797;SDS011;61084;55.816;37.036;2022-07-11T11:54:01;11.98;;;3.75;;
72797;SDS011;61084;55.816;37.036;2022-07-11T11:56:29;7.95;;;4.05;;
72797;SDS011;61084;55.816;37.036;2022-07-11T12:01:27;6.95;;;3.97;;
72797;SDS011;61084;55.816;37.036;2022-07-11T12:03:54;7.43;;;4.03;;
72797;SDS011;61084;55.816;37.036;2022-07-11T12:06:24;7.32;;;3.78;;
72797;SDS011;61084;55.816;37.036;2022-07-11T12:08:52;8.75;;;3.47;;
72797;SDS011;61084;55.816;37.036;2022-07-11T12:11:23;7.47;;;3.28;;
72797;SDS011;61084;55.816;37.036;2022-07-11T12:13:54;7.38;;;4.15;;
72797;SDS011;61084;55.816;37.036;2022-07-11T12:16:24;5.85;;;3.92;;
72797;SDS011;61084;55.816;37.036;2022-07-11T12:21:43;5.47;;;3.80;;
72797;SDS011;61084;55.816;37.036;2022-07-11T12:24:11;10.25;;;4.07;;
72797;SDS011;61084;55.816;37.036;2022-07-11T12:26:40;11.85;;;4.00;;
72797;SDS011;61084;55.816;37.036;2022-07-11T12:36:47;6.70;;;4.18;;
72797;SDS011;61084;55.816;37.036;2022-07-11T12:39:47;7.30;;;4.10;;
72797;SDS011;61084;55.816;37.036;2022-07-11T12:42:32;13.05;;;4.43;;
72797;SDS011;61084;55.816;37.036;2022-07-11T12:47:37;11.25;;;3.67;;
72797;SDS011;61084;55.816;37.036;2022-07-11T12:52:39;9.80;;;4.10;;
72797;SDS011;61084;55.816;37.036;2022-07-11T12:55:07;14.23;;;3.70;;
72797;SDS011;61084;55.816;37.036;2022-07-11T12:57:39;11.13;;;3.50;;
72797;SDS011;61084;55.816;37.036;2022-07-11T13:00:14;10.52;;;3.60;;
72797;SDS011;61084;55.816;37.036;2022-07-11T13:02:48;7.63;;;4.03;;
72797;SDS011;61084;55.816;37.036;2022-07-11T13:05:15;11.15;;;3.45;;
72797;SDS011;61084;55.816;37.036;2022-07-11T13:07:41;6.05;;;3.40;;
72797;SDS011;61084;55.816;37.036;2022-07-11T13:10:26;8.35;;;3.30;;
72797;SDS011;61084;55.816;37.036;2022-07-11T13:13:18;8.05;;;3.35;;
72797;SDS011;61084;55.816;37.036;2022-07-11T13:15:45;9.95;;;3.30;;
72797;SDS011;61084;55.816;37.036;2022-07-11T13:18:13;9.25;;;3.42;;
72797;SDS011;61084;55.816;37.036;2022-07-11T13:20:40;7.95;;;3.75;;
72797;SDS011;61084;55.816;37.036;2022-07-11T13:23:05;9.73;;;3.10;;
72797;SDS011;61084;55.816;37.036;2022-07-11T13:25:33;7.05;;;3.65;;
72797;SDS011;61084;55.816;37.036;2022-07-11T13:27:59;7.90;;;3.55;;
72797;SDS011;61084;55.816;37.036;2022-07-11T13:30:25;8.70;;;3.40;;
72797;SDS011;61084;55.816;37.036;2022-07-11T13:32:56;9.20;;;3.75;;
72797;SDS011;61084;55.816;37.036;2022-07-11T13:35:23;9.38;;;3.60;;
72797;SDS011;61084;55.816;37.036;2022-07-11T13:37:49;11.80;;;3.72;;
72797;SDS011;61084;55.816;37.036;2022-07-11T13:40:19;9.77;;;3.40;;
72797;SDS011;61084;55.816;37.036;2022-07-11T13:42:46;8.68;;;3.63;;
72797;SDS011;61084;55.816;37.036;2022-07-11T13:45:15;9.20;;;3.85;;
72797;SDS011;61084;55.816;37.036;2022-07-11T13:47:43;14.65;;;3.40;;
72797;SDS011;61084;55.816;37.036;2022-07-11T13:50:09;10.93;;;3.58;;
72797;SDS011;61084;55.816;37.036;2022-07-11T13:52:35;6.13;;;3.85;;
72797;SDS011;61084;55.816;37.036;2022-07-11T13:55:01;6.15;;;3.67;;
72797;SDS011;61084;55.816;37.036;2022-07-11T13:57:29;10.60;;;3.40;;
72797;SDS011;61084;55.816;37.036;2022-07-11T13:59:55;7.88;;;3.42;;
72797;SDS011;61084;55.816;37.036;2022-07-11T14:02:22;13.95;;;3.38;;
72797;SDS011;61084;55.816;37.036;2022-07-11T14:04:50;6.60;;;3.47;;
72797;SDS011;61084;55.816;37.036;2022-07-11T14:07:16;14.45;;;4.30;;
72797;SDS011;61084;55.816;37.036;2022-07-11T14:09:44;7.53;;;3.60;;
72797;SDS011;61084;55.816;37.036;2022-07-11T14:12:10;9.57;;;3.38;;
72797;SDS011;61084;55.816;37.036;2022-07-11T14:14:37;8.98;;;3.80;;
72797;SDS011;61084;55.816;37.036;2022-07-11T14:17:03;12.07;;;3.63;;
72797;SDS011;61084;55.816;37.036;2022-07-11T14:19:30;14.25;;;5.03;;
72797;SDS011;61084;55.816;37.036;2022-07-11T14:22:03;9.55;;;3.58;;
72797;SDS011;61084;55.816;37.036;2022-07-11T14:24:34;16.80;;;3.40;;
72797;SDS011;61084;55.816;37.036;2022-07-11T14:27:00;13.80;;;3.67;;
72797;SDS011;61084;55.816;37.036;2022-07-11T14:29:27;9.65;;;3.63;;
72797;SDS011;61084;55.816;37.036;2022-07-11T14:31:53;8.27;;;3.50;;
72797;SDS011;61084;55.816;37.036;2022-07-11T14:34:23;11.43;;;2.97;;
72797;SDS011;61084;55.816;37.036;2022-07-11T14:36:49;7.22;;;2.90;;
72797;SDS011;61084;55.816;37.036;2022-07-11T14:39:15;9.07;;;3.75;;
72797;SDS011;61084;55.816;37.036;2022-07-11T14:41:42;7.38;;;3.10;;
72797;SDS011;61084;55.816;37.036;2022-07-11T14:44:10;10.30;;;2.80;;
72797;SDS011;61084;55.816;37.036;2022-07-11T14:46:36;9.10;;;3.10;;
72797;SDS011;61084;55.816;37.036;2022-07-11T14:49:02;6.78;;;2.70;;
72797;SDS011;61084;55.816;37.036;2022-07-11T14:51:36;9.93;;;3.17;;
72797;SDS011;61084;55.816;37.036;2022-07-11T14:54:02;9.23;;;3.22;;
72797;SDS011;61084;55.816;37.036;2022-07-11T14:56:47;9.48;;;2.97;;
72797;SDS011;61084;55.816;37.036;2022-07-11T14:59:13;8.30;;;3.00;;
72797;SDS011;61084;55.816;37.036;2022-07-11T15:01:38;13.85;;;3.22;;
72797;SDS011;61084;55.816;37.036;2022-07-11T15:04:04;12.85;;;3.25;;
72797;SDS011;61084;55.816;37.036;2022-07-11T15:06:30;9.35;;;3.05;;
72797;SDS011;61084;55.816;37.036;2022-07-11T15:09:15;10.50;;;3.17;;
72797;SDS011;61084;55.816;37.036;2022-07-11T15:11:59;10.20;;;2.92;;
72797;SDS011;61084;55.816;37.036;2022-07-11T15:14:44;8.50;;;3.17;;
72797;SDS011;61084;55.816;37.036;2022-07-11T15:17:09;7.35;;;2.83;;
72797;SDS011;61084;55.816;37.036;2022-07-11T15:19:35;10.50;;;3.13;;
72797;SDS011;61084;55.816;37.036;2022-07-11T15:22:01;15.02;;;3.45;;
72797;SDS011;61084;55.816;37.036;2022-07-11T15:24:27;6.90;;;2.90;;
72797;SDS011;61084;55.816;37.036;2022-07-11T15:26:53;8.75;;;3.55;;
72797;SDS011;61084;55.816;37.036;2022-07-11T15:29:20;9.43;;;3.03;;
72797;SDS011;61084;55.816;37.036;2022-07-11T15:31:46;6.45;;;3.00;;
72797;SDS011;61084;55.816;37.036;2022-07-11T15:34:12;7.15;;;3.10;;
72797;SDS011;61084;55.816;37.036;2022-07-11T15:36:38;7.75;;;3.67;;
72797;SDS011;61084;55.816;37.036;2022-07-11T15:39:04;7.15;;;3.22;;
72797;SDS011;61084;55.816;37.036;2022-07-11T15:41:30;6.95;;;2.50;;
72797;SDS011;61084;55.816;37.036;2022-07-11T15:43:55;12.30;;;2.95;;
72797;SDS011;61084;55.816;37.036;2022-07-11T15:46:21;8.10;;;3.80;;
72797;SDS011;61084;55.816;37.036;2022-07-11T15:48:47;6.97;;;2.90;;
72797;SDS011;61084;55.816;37.036;2022-07-11T15:51:13;12.35;;;2.88;;
72797;SDS011;61084;55.816;37.036;2022-07-11T15:53:39;10.80;;;3.08;;
72797;SDS011;61084;55.816;37.036;2022-07-11T15:56:05;5.97;;;3.20;;
72797;SDS011;61084;55.816;37.036;2022-07-11T15:58:30;7.90;;;3.85;;